sensor_id;sensor_type;location;lat;lon;timestamp;pressure;altitude;pressure_sealevel;temperature;humidity
68508;BME280;55510;49.560;19.090;2023-05-10T12:39:22;96484.53;;;16.51;40.38
68508;BME280;55510;49.560;19.090;2023-05-10T12:42:22;96479.66;;;16.58;41.70
68508;BME280;55510;49.560;19.090;2023-05-10T12:45:25;96477.66;;;16.74;41.87
68508;BME280;55510;49.560;19.090;2023-05-10T12:48:28;96478.09;;;16.87;42.97
68508;BME280;55510;49.560;19.090;2023-05-10T12:51:29;96482.16;;;16.84;41.68
68508;BME280;55510;49.560;19.090;2023-05-10T12:54:29;96477.75;;;16.99;42.29
68508;BME280;55510;49.560;19.090;2023-05-10T12:57:30;96466.44;;;16.96;40.94
68508;BME280;55510;49.560;19.090;2023-05-10T13:00:31;96472.38;;;16.93;43.49
68508;BME280;55510;49.560;19.090;2023-05-10T13:03:32;96470.41;;;16.70;39.39
68508;BME280;55510;49.560;19.090;2023-05-10T13:06:32;96473.94;;;16.70;38.96
68508;BME280;55510;49.560;19.090;2023-05-10T13:09:33;96470.38;;;16.75;40.88
68508;BME280;55510;49.560;19.090;2023-05-10T13:12:34;96464.41;;;16.83;42.77
68508;BME280;55510;49.560;19.090;2023-05-10T13:15:34;96466.03;;;16.84;41.44
68508;BME280;55510;49.560;19.090;2023-05-10T13:18:35;96461.13;;;16.91;39.78
68508;BME280;55510;49.560;19.090;2023-05-10T13:21:36;96462.13;;;17.01;38.44
68508;BME280;55510;49.560;19.090;2023-05-10T13:24:36;96457.34;;;16.92;37.60
68508;BME280;55510;49.560;19.090;2023-05-10T13:27:38;96464.91;;;16.90;39.70
68508;BME280;55510;49.560;19.090;2023-05-10T13:30:39;96457.41;;;16.87;39.30
68508;BME280;55510;49.560;19.090;2023-05-10T13:33:40;96460.09;;;16.87;40.24
68508;BME280;55510;49.560;19.090;2023-05-10T13:36:41;96455.31;;;17.14;40.80
68508;BME280;55510;49.560;19.090;2023-05-10T13:39:41;96457.19;;;17.13;39.80
68508;BME280;55510;49.560;19.090;2023-05-10T13:42:42;96453.53;;;17.28;39.64
68508;BME280;55510;49.560;19.090;2023-05-10T13:45:43;96450.22;;;17.36;38.95
68508;BME280;55510;49.560;19.090;2023-05-10T13:48:43;96448.41;;;17.56;39.33
68508;BME280;55510;49.560;19.090;2023-05-10T13:51:44;96449.97;;;17.81;36.71
68508;BME280;55510;49.560;19.090;2023-05-10T13:54:45;96438.63;;;17.85;36.95
68508;BME280;55510;49.560;19.090;2023-05-10T13:57:46;96441.97;;;17.76;37.67
68508;BME280;55510;49.560;19.090;2023-05-10T14:00:47;96441.59;;;17.83;39.82
68508;BME280;55510;49.560;19.090;2023-05-10T14:03:48;96437.16;;;17.73;36.43
68508;BME280;55510;49.560;19.090;2023-05-10T14:06:49;96439.16;;;17.62;38.63
68508;BME280;55510;49.560;19.090;2023-05-10T14:09:49;96444.56;;;17.38;38.78
68508;BME280;55510;49.560;19.090;2023-05-10T14:12:50;96446.72;;;17.12;40.46
68508;BME280;55510;49.560;19.090;2023-05-10T14:15:52;96445.16;;;17.05;38.77
68508;BME280;55510;49.560;19.090;2023-05-10T14:18:53;96440.22;;;16.83;37.75
68508;BME280;55510;49.560;19.090;2023-05-10T14:21:53;96445.16;;;16.71;38.96
68508;BME280;55510;49.560;19.090;2023-05-10T14:24:54;96438.00;;;16.61;39.52
68508;BME280;55510;49.560;19.090;2023-05-10T14:27:55;96437.78;;;16.52;39.29
68508;BME280;55510;49.560;19.090;2023-05-10T14:30:56;96434.09;;;16.43;40.57
68508;BME280;55510;49.560;19.090;2023-05-10T14:33:57;96436.28;;;16.41;40.54
68508;BME280;55510;49.560;19.090;2023-05-10T14:36:58;96436.53;;;16.39;40.98
68508;BME280;55510;49.560;19.090;2023-05-10T14:39:59;96432.28;;;16.33;41.18
68508;BME280;55510;49.560;19.090;2023-05-10T14:43:00;96430.69;;;16.32;42.54
68508;BME280;55510;49.560;19.090;2023-05-10T14:46:01;96423.41;;;16.32;42.04
68508;BME280;55510;49.560;19.090;2023-05-10T14:49:01;96434.16;;;16.32;41.67
68508;BME280;55510;49.560;19.090;2023-05-10T14:52:02;96432.81;;;16.35;40.04
68508;BME280;55510;49.560;19.090;2023-05-10T14:55:03;96423.09;;;16.39;40.25
68508;BME280;55510;49.560;19.090;2023-05-10T14:58:04;96424.97;;;16.44;40.21
68508;BME280;55510;49.560;19.090;2023-05-10T15:01:05;96431.91;;;16.50;40.96
68508;BME280;55510;49.560;19.090;2023-05-10T15:04:06;96434.28;;;16.51;39.31
68508;BME280;55510;49.560;19.090;2023-05-10T15:07:07;96435.63;;;16.54;41.37
68508;BME280;55510;49.560;19.090;2023-05-10T15:10:08;96436.72;;;16.53;39.87
68508;BME280;55510;49.560;19.090;2023-05-10T15:13:09;96429.94;;;16.61;42.89
68508;BME280;55510;49.560;19.090;2023-05-10T15:16:09;96433.31;;;16.72;40.82
68508;BME280;55510;49.560;19.090;2023-05-10T15:19:11;96434.34;;;16.76;39.73
68508;BME280;55510;49.560;19.090;2023-05-10T15:22:11;96427.38;;;16.75;39.20
68508;BME280;55510;49.560;19.090;2023-05-10T15:25:13;96432.03;;;16.69;39.73
68508;BME280;55510;49.560;19.090;2023-05-10T15:28:14;96434.72;;;16.69;40.83
68508;BME280;55510;49.560;19.090;2023-05-10T15:31:15;96433.66;;;17.00;39.83
68508;BME280;55510;49.560;19.090;2023-05-10T15:34:16;96431.88;;;17.63;38.83
68508;BME280;55510;49.560;19.090;2023-05-10T15:37:17;96438.25;;;18.35;38.13
68508;BME280;55510;49.560;19.090;2023-05-10T15:40:17;96431.31;;;18.81;37.85
68508;BME280;55510;49.560;19.090;2023-05-10T15:43:18;96431.22;;;18.53;35.85
68508;BME280;55510;49.560;19.090;2023-05-10T15:46:19;96431.31;;;19.14;35.26
68508;BME280;55510;49.560;19.090;2023-05-10T15:49:20;96435.41;;;20.32;32.76
68508;BME280;55510;49.560;19.090;2023-05-10T15:52:20;96430.63;;;20.97;30.77
68508;BME280;55510;49.560;19.090;2023-05-10T15:55:23;96429.25;;;21.09;31.08
68508;BME280;55510;49.560;19.090;2023-05-10T15:58:23;96433.47;;;20.92;30.79
68508;BME280;55510;49.560;19.090;2023-05-10T16:01:24;96432.69;;;21.23;31.22
68508;BME280;55510;49.560;19.090;2023-05-10T16:04:25;96429.91;;;19.31;33.42
68508;BME280;55510;49.560;19.090;2023-05-10T16:07:26;96433.88;;;18.20;36.00
68508;BME280;55510;49.560;19.090;2023-05-10T16:10:30;96430.97;;;17.00;38.47
68508;BME280;55510;49.560;19.090;2023-05-10T16:13:33;96431.69;;;16.76;38.06
68508;BME280;55510;49.560;19.090;2023-05-10T16:16:34;96427.69;;;16.33;38.91
68508;BME280;55510;49.560;19.090;2023-05-10T16:19:35;96436.31;;;15.80;40.60
68508;BME280;55510;49.560;19.090;2023-05-10T16:22:36;96433.72;;;15.59;40.96
68508;BME280;55510;49.560;19.090;2023-05-10T16:25:37;96439.94;;;15.49;43.15
68508;BME280;55510;49.560;19.090;2023-05-10T16:28:37;96442.44;;;15.10;42.86
68508;BME280;55510;49.560;19.090;2023-05-10T16:31:39;96435.81;;;14.71;43.19
68508;BME280;55510;49.560;19.090;2023-05-10T16:34:40;96445.41;;;14.46;44.44
68508;BME280;55510;49.560;19.090;2023-05-10T16:37:41;96442.19;;;14.44;45.00
68508;BME280;55510;49.560;19.090;2023-05-10T16:40:41;96442.72;;;14.30;45.63
68508;BME280;55510;49.560;19.090;2023-05-10T16:43:42;96435.75;;;14.24;46.95
68508;BME280;55510;49.560;19.090;2023-05-10T16:46:43;96443.25;;;14.22;47.22
68508;BME280;55510;49.560;19.090;2023-05-10T16:49:43;96439.47;;;14.07;48.75
68508;BME280;55510;49.560;19.090;2023-05-10T16:52:44;96439.44;;;13.92;50.93
68508;BME280;55510;49.560;19.090;2023-05-10T16:55:45;96444.22;;;13.80;51.85
68508;BME280;55510;49.560;19.090;2023-05-10T16:58:45;96448.44;;;13.65;53.33
68508;BME280;55510;49.560;19.090;2023-05-10T17:01:47;96452.66;;;13.51;54.37
68508;BME280;55510;49.560;19.090;2023-05-10T17:04:47;96458.97;;;13.34;54.63
68508;BME280;55510;49.560;19.090;2023-05-10T17:07:48;96458.34;;;13.22;55.85
68508;BME280;55510;49.560;19.090;2023-05-10T17:10:49;96460.97;;;13.11;55.90
68508;BME280;55510;49.560;19.090;2023-05-10T17:13:50;96461.38;;;12.93;55.12
68508;BME280;55510;49.560;19.090;2023-05-10T17:16:51;96466.16;;;12.85;55.42
68508;BME280;55510;49.560;19.090;2023-05-10T17:19:52;96462.66;;;12.85;53.46
68508;BME280;55510;49.560;19.090;2023-05-10T17:22:53;96466.34;;;12.79;53.74
68508;BME280;55510;49.560;19.090;2023-05-10T17:25:54;96465.47;;;12.68;54.04
68508;BME280;55510;49.560;19.090;2023-05-10T17:28:54;96466.44;;;12.56;54.99
68508;BME280;55510;49.560;19.090;2023-05-10T17:31:55;96472.81;;;12.50;55.97
68508;BME280;55510;49.560;19.090;2023-05-10T17:34:55;96470.28;;;12.38;57.14
68508;BME280;55510;49.560;19.090;2023-05-10T17:37:57;96468.53;;;12.22;58.66
68508;BME280;55510;49.560;19.090;2023-05-10T17:40:57;96476.38;;;12.06;58.56
68508;BME280;55510;49.560;19.090;2023-05-10T17:43:58;96477.56;;;11.93;59.00
68508;BME280;55510;49.560;19.090;2023-05-10T17:46:58;96484.56;;;11.77;58.32
68508;BME280;55510;49.560;19.090;2023-05-10T17:49:59;96482.56;;;11.67;59.24
68508;BME280;55510;49.560;19.090;2023-05-10T17:53:00;96489.88;;;11.55;60.46
68508;BME280;55510;49.560;19.090;2023-05-10T17:56:02;96496.88;;;11.39;61.99
68508;BME280;55510;49.560;19.090;2023-05-10T17:59:03;96499.50;;;11.16;62.81
68508;BME280;55510;49.560;19.090;2023-05-10T18:02:05;96498.53;;;10.88;65.08
68508;BME280;55510;49.560;19.090;2023-05-10T18:05:06;96500.63;;;10.69;66.61
68508;BME280;55510;49.560;19.090;2023-05-10T18:08:07;96505.34;;;10.50;66.15
68508;BME280;55510;49.560;19.090;2023-05-10T18:11:07;96509.81;;;10.33;67.48
68508;BME280;55510;49.560;19.090;2023-05-10T18:14:09;96513.72;;;10.13;68.13
68508;BME280;55510;49.560;19.090;2023-05-10T18:17:09;96508.69;;;9.99;68.14
68508;BME280;55510;49.560;19.090;2023-05-10T18:20:10;96517.97;;;9.85;68.43
68508;BME280;55510;49.560;19.090;2023-05-10T18:23:11;96520.31;;;9.69;70.33
68508;BME280;55510;49.560;19.090;2023-05-10T18:26:12;96518.38;;;9.53;70.34
68508;BME280;55510;49.560;19.090;2023-05-10T18:29:13;96524.53;;;9.41;70.24
68508;BME280;55510;49.560;19.090;2023-05-10T18:32:14;96531.44;;;9.31;70.64
68508;BME280;55510;49.560;19.090;2023-05-10T18:35:14;96541.28;;;9.18;71.23
68508;BME280;55510;49.560;19.090;2023-05-10T18:38:15;96540.69;;;9.04;72.19
68508;BME280;55510;49.560;19.090;2023-05-10T18:41:16;96536.06;;;8.88;73.26
68508;BME280;55510;49.560;19.090;2023-05-10T18:44:16;96535.53;;;8.67;73.84
68508;BME280;55510;49.560;19.090;2023-05-10T18:47:18;96542.09;;;8.52;74.81
68508;BME280;55510;49.560;19.090;2023-05-10T18:50:19;96545.81;;;8.45;74.71
68508;BME280;55510;49.560;19.090;2023-05-10T18:53:19;96549.84;;;8.35;75.31
68508;BME280;55510;49.560;19.090;2023-05-10T18:56:20;96556.50;;;8.26;75.81
68508;BME280;55510;49.560;19.090;2023-05-10T18:59:21;96563.34;;;8.15;76.16
68508;BME280;55510;49.560;19.090;2023-05-10T19:02:22;96564.69;;;8.06;76.14
68508;BME280;55510;49.560;19.090;2023-05-10T19:05:24;96568.69;;;7.96;77.33
68508;BME280;55510;49.560;19.090;2023-05-10T19:08:29;96571.13;;;7.79;78.35
68508;BME280;55510;49.560;19.090;2023-05-10T19:11:29;96559.69;;;7.60;79.87
68508;BME280;55510;49.560;19.090;2023-05-10T19:14:34;96565.56;;;7.44;81.02
68508;BME280;55510;49.560;19.090;2023-05-10T19:17:35;96565.41;;;7.38;81.22
68508;BME280;55510;49.560;19.090;2023-05-10T19:20:36;96567.25;;;7.38;80.92
68508;BME280;55510;49.560;19.090;2023-05-10T19:23:37;96568.50;;;7.35;81.66
68508;BME280;55510;49.560;19.090;2023-05-10T19:26:39;96572.16;;;7.34;81.02
68508;BME280;55510;49.560;19.090;2023-05-10T19:29:40;96577.03;;;7.37;80.56
68508;BME280;55510;49.560;19.090;2023-05-10T19:32:41;96575.78;;;7.40;80.34
68508;BME280;55510;49.560;19.090;2023-05-10T19:35:43;96578.19;;;7.42;80.31
68508;BME280;55510;49.560;19.090;2023-05-10T19:38:44;96580.84;;;7.42;80.62
68508;BME280;55510;49.560;19.090;2023-05-10T19:41:45;96578.63;;;7.38;80.98
68508;BME280;55510;49.560;19.090;2023-05-10T19:44:48;96583.13;;;7.38;81.14
68508;BME280;55510;49.560;19.090;2023-05-10T19:47:48;96586.44;;;7.33;81.19
68508;BME280;55510;49.560;19.090;2023-05-10T19:50:50;96590.75;;;7.28;81.65
68508;BME280;55510;49.560;19.090;2023-05-10T19:53:51;96589.56;;;7.23;82.04
68508;BME280;55510;49.560;19.090;2023-05-10T19:56:52;96593.47;;;7.21;82.17
